Time;durP1;ratioP1;P1;durP2;ratioP2;P2;SDS_P1;SDS_P2;PMS_P1;PMS_P2;Temp;Humidity;BMP_temperature;BMP_pressure;BME280_temperature;BME280_humidity;BME280_pressure;Samples;Min_cycle;Max_cycle;Signal;HPM_P1;HPM_P2
2023/12/10 00:01:14;;;;;;;;;;;;;;;-144.99;100.00;52696.78;5024672;28;19929;-69
2023/12/10 00:03:41;;;;;;;;;;;;;;;-144.99;100.00;52692.69;5025467;28;19931;-67
2023/12/10 00:06:09;;;;;;;;;;;;;;;-144.99;100.00;52688.63;5026885;28;19929;-67
2023/12/10 00:08:36;;;;;;;;;;;;;;;-144.99;100.00;52715.13;5024006;28;19929;-67
2023/12/10 00:11:02;;;;;;;;;;;;;;;-144.99;100.00;52688.63;5025991;28;19933;-68
2023/12/10 00:13:29;;;;;;;;;;;;;;;-144.99;100.00;52709.00;5023957;28;20258;-68
2023/12/10 00:15:55;;;;;;;;;;;;;;;-144.99;100.00;52706.97;5024675;28;19932;-68
2023/12/10 00:18:22;;;;;;;;;;;;;;;-144.99;100.00;52676.38;5022808;28;19956;-67
2023/12/10 00:20:49;;;;;;;;;;;;;;;-144.99;100.00;52664.16;5024284;28;20006;-69
2023/12/10 00:23:17;;;;;;;;;;;;;;;-144.99;100.00;52680.47;5024803;28;19959;-65
2023/12/10 00:25:45;;;;;;;;;;;;;;;-144.99;100.00;52680.47;5023920;28;19925;-65
2023/12/10 00:28:11;;;;;;;;;;;;;;;-144.99;100.00;52684.53;5027611;28;19925;-65
2023/12/10 00:30:40;;;;;;;;;;;;;;;-144.99;100.00;52672.31;5023110;28;19944;-64
2023/12/10 00:33:07;;;;;;;;;;;;;;;-144.99;100.00;52664.16;5025965;28;19932;-63
2023/12/10 00:35:33;;;;;;;;;;;;;;;-144.99;100.00;52680.47;5023952;28;20362;-64
2023/12/10 00:38:00;;;;;;;;;;;;;;;-144.99;100.00;52676.38;5026144;28;20673;-69
2023/12/10 00:40:27;;;;;;;;;;;;;;;-144.99;100.00;52686.59;5025901;28;20037;-68
2023/12/10 00:42:57;;;;;;;;;;;;;;;-144.99;100.00;52649.88;5022783;28;20335;-69
2023/12/10 00:45:24;;;;;;;;;;;;;;;-144.99;100.00;52633.59;5017867;28;20008;-63
2023/12/10 00:47:50;;;;;;;;;;;;;;;-144.99;100.00;52709.00;5024372;28;19929;-63
2023/12/10 00:50:17;;;;;;;;;;;;;;;-144.99;100.00;52676.38;5025555;28;19925;-66
2023/12/10 00:52:43;;;;;;;;;;;;;;;-144.99;100.00;52631.53;5020105;28;20375;-66
2023/12/10 00:55:10;;;;;;;;;;;;;;;-144.99;100.00;52717.16;5026161;28;19929;-66
2023/12/10 00:57:38;;;;;;;;;;;;;;;-144.99;100.00;52676.38;5023792;28;20009;-67
2023/12/10 01:00:08;;;;;;;;;;;;;;;-144.99;100.00;52631.53;5025145;28;19933;-66
2023/12/10 01:02:35;;;;;;;;;;;;;;;-144.99;100.00;52643.78;5023404;28;19995;-68
2023/12/10 01:05:01;;;;;;;;;;;;;;;-144.99;100.00;52682.50;5029093;28;20022;-68
2023/12/10 01:07:29;;;;;;;;;;;;;;;-144.99;100.00;52656.00;5023733;28;19969;-68
2023/12/10 01:09:55;;;;;;;;;;;;;;;-144.99;100.00;52660.09;5024726;28;19972;-67
2023/12/10 01:12:22;;;;;;;;;;;;;;;-144.99;100.00;52688.63;5025166;28;19933;-67
2023/12/10 01:14:50;;;;;;;;;;;;;;;-144.99;100.00;52627.47;5019618;28;19929;-68
2023/12/10 01:17:17;;;;;;;;;;;;;;;-144.99;100.00;52664.16;5021534;28;19960;-67
2023/12/10 01:19:44;;;;;;;;;;;;;;;-144.99;100.00;52674.34;5023543;28;20350;-67
2023/12/10 01:22:10;;;;;;;;;;;;;;;-144.99;100.00;52696.78;5024977;28;19933;-67
2023/12/10 01:24:37;;;;;;;;;;;;;;;-144.99;100.00;52696.78;5024845;28;19983;-67
2023/12/10 01:27:04;;;;;;;;;;;;;;;-144.99;100.00;52700.84;5014562;28;19941;-68
2023/12/10 01:29:30;;;;;;;;;;;;;;;-144.99;100.00;52684.53;5022159;28;19940;-68
2023/12/10 01:31:58;;;;;;;;;;;;;;;-144.99;100.00;52668.22;5024430;28;20445;-69
2023/12/10 01:34:25;;;;;;;;;;;;;;;-144.99;100.00;52700.84;5015448;28;19925;-67
2023/12/10 01:36:52;;;;;;;;;;;;;;;-144.99;100.00;52656.00;5024302;28;19937;-67
2023/12/10 01:39:18;;;;;;;;;;;;;;;-144.99;100.00;52684.53;5017513;28;19925;-67
2023/12/10 01:41:45;;;;;;;;;;;;;;;-144.99;100.00;52656.00;5025677;28;19944;-67
2023/12/10 01:44:12;;;;;;;;;;;;;;;-144.99;100.00;52645.81;5030774;28;19925;-67
2023/12/10 01:46:38;;;;;;;;;;;;;;;-144.99;100.00;52660.09;5031290;28;19983;-66
2023/12/10 01:49:08;;;;;;;;;;;;;;;-144.99;100.00;52625.44;5020526;28;19979;-67
2023/12/10 01:51:35;;;;;;;;;;;;;;;-144.99;100.00;52680.47;5013631;28;20230;-66
2023/12/10 01:54:02;;;;;;;;;;;;;;;-144.99;100.00;52664.16;5022507;28;20134;-66
2023/12/10 01:56:29;;;;;;;;;;;;;;;-144.99;100.00;52678.44;5017193;28;19929;-66
2023/12/10 01:58:55;;;;;;;;;;;;;;;-144.99;100.00;52688.63;5024157;28;20374;-64
2023/12/10 02:01:23;;;;;;;;;;;;;;;-144.99;100.00;52684.53;5021606;28;19968;-64
2023/12/10 02:03:50;;;;;;;;;;;;;;;-144.99;100.00;52660.09;5023953;28;19925;-64
2023/12/10 02:06:18;;;;;;;;;;;;;;;-144.99;100.00;52607.09;5023940;28;19925;-64
2023/12/10 02:08:45;;;;;;;;;;;;;;;-144.99;100.00;52660.09;5024281;28;19948;-65
2023/12/10 02:11:11;;;;;;;;;;;;;;;-144.99;100.00;52692.69;5023516;28;20115;-65
2023/12/10 02:13:39;;;;;;;;;;;;;;;-144.99;100.00;52664.16;5021513;28;20295;-65
2023/12/10 02:16:07;;;;;;;;;;;;;;;-144.99;100.00;52668.22;5021474;28;19941;-65
2023/12/10 02:18:33;;;;;;;;;;;;;;;-144.99;100.00;52619.31;5016480;28;20324;-65
2023/12/10 02:21:00;;;;;;;;;;;;;;;-144.99;100.00;52635.63;5024288;28;20003;-65
2023/12/10 02:23:33;;;;;;;;;;;;;;;-144.99;100.00;52639.69;5035224;28;20396;-66
2023/12/10 02:26:01;;;;;;;;;;;;;;;-144.99;100.00;52664.16;5032813;28;19929;-63
2023/12/10 02:28:27;;;;;;;;;;;;;;;-144.99;100.00;52680.47;5029836;28;19940;-65
2023/12/10 02:30:54;;;;;;;;;;;;;;;-144.99;100.00;52641.72;5024892;28;19987;-65
2023/12/10 02:33:21;;;;;;;;;;;;;;;-144.99;100.00;52643.78;5023998;28;19932;-65
2023/12/10 02:35:47;;;;;;;;;;;;;;;-144.99;100.00;52676.38;5025983;28;19936;-69
2023/12/10 02:38:20;;;;;;;;;;;;;;;-144.99;100.00;52668.22;5025588;28;19932;-70
2023/12/10 02:40:47;;;;;;;;;;;;;;;-144.99;100.00;52680.47;4680210;28;9999932;-70
2023/12/10 02:43:16;;;;;;;;;;;;;;;-144.99;100.00;52682.50;5027294;28;19925;-70
2023/12/10 02:45:42;;;;;;;;;;;;;;;-144.99;100.00;52664.16;5027432;28;20358;-69
2023/12/10 02:48:09;;;;;;;;;;;;;;;-144.99;100.00;52698.81;5018905;28;19933;-69
2023/12/10 02:50:35;;;;;;;;;;;;;;;-144.99;100.00;52621.34;5028759;28;19948;-68
2023/12/10 02:53:02;;;;;;;;;;;;;;;-144.99;100.00;52651.94;5021362;28;20031;-68
2023/12/10 02:55:29;;;;;;;;;;;;;;;-144.99;100.00;52680.47;5029797;28;19925;-67
2023/12/10 02:57:55;;;;;;;;;;;;;;;-144.99;100.00;52639.69;5029329;28;19925;-68
2023/12/10 03:00:23;;;;;;;;;;;;;;;-144.99;100.00;52670.28;5024810;28;19925;-67
2023/12/10 03:02:50;;;;;;;;;;;;;;;-144.99;100.00;52674.34;5033257;28;19924;-67
2023/12/10 03:05:16;;;;;;;;;;;;;;;-144.99;100.00;52637.66;5033091;28;19933;-67
2023/12/10 03:07:43;;;;;;;;;;;;;;;-144.99;100.00;52690.66;5029652;28;20375;-65
2023/12/10 03:10:10;;;;;;;;;;;;;;;-144.99;100.00;52635.63;5029371;28;19929;-66
2023/12/10 03:12:36;;;;;;;;;;;;;;;-144.99;100.00;52643.78;5024791;28;20460;-65
2023/12/10 03:15:03;;;;;;;;;;;;;;;-144.99;100.00;52656.00;5024090;28;19937;-69
2023/12/10 03:17:31;;;;;;;;;;;;;;;-144.99;100.00;52656.00;5026931;28;20298;-69
2023/12/10 03:19:57;;;;;;;;;;;;;;;-144.99;100.00;52668.22;5029367;28;20310;-70
2023/12/10 03:22:24;;;;;;;;;;;;;;;-144.99;100.00;52639.69;5029256;28;20303;-69
2023/12/10 03:24:50;;;;;;;;;;;;;;;-144.99;100.00;52627.47;5026161;28;19933;-69
2023/12/10 03:27:17;;;;;;;;;;;;;;;-144.99;100.00;52649.88;5024561;28;19929;-69
2023/12/10 03:29:46;;;;;;;;;;;;;;;-144.99;100.00;52668.22;5025797;28;21543;-69
2023/12/10 03:32:13;;;;;;;;;;;;;;;-144.99;100.00;52660.09;5018207;28;19929;-69
2023/12/10 03:34:41;;;;;;;;;;;;;;;-144.99;100.00;52637.66;5027088;28;19929;-69
2023/12/10 03:37:07;;;;;;;;;;;;;;;-144.99;100.00;52656.00;5028663;28;20095;-69
2023/12/10 03:39:34;;;;;;;;;;;;;;;-144.99;100.00;52668.22;5028796;28;20316;-70
2023/12/10 03:42:00;;;;;;;;;;;;;;;-144.99;100.00;52639.69;5029229;28;20370;-69
2023/12/10 03:44:27;;;;;;;;;;;;;;;-144.99;100.00;52643.78;5053123;28;19992;-70
2023/12/10 03:46:54;;;;;;;;;;;;;;;-144.99;100.00;52615.25;5037596;28;19980;-69
2023/12/10 03:49:20;;;;;;;;;;;;;;;-144.99;100.00;52627.47;5023238;28;19994;-62
2023/12/10 03:51:48;;;;;;;;;;;;;;;-144.99;100.00;52625.44;5026211;28;20295;-62
2023/12/10 03:54:15;;;;;;;;;;;;;;;-144.99;100.00;52627.47;5027046;28;19999;-60
2023/12/10 03:56:41;;;;;;;;;;;;;;;-144.99;100.00;52629.50;5022523;28;20017;-62
2023/12/10 03:59:08;;;;;;;;;;;;;;;-144.99;100.00;52635.63;5026924;28;20451;-61
2023/12/10 04:01:34;;;;;;;;;;;;;;;-144.99;100.00;52639.69;5026957;28;19925;-61
2023/12/10 04:04:01;;;;;;;;;;;;;;;-144.99;100.00;52631.53;5026251;28;19979;-61
2023/12/10 04:06:28;;;;;;;;;;;;;;;-144.99;100.00;52656.00;5024365;28;19925;-62
2023/12/10 04:08:55;;;;;;;;;;;;;;;-144.99;100.00;52643.78;5025677;28;19925;-61
2023/12/10 04:11:23;;;;;;;;;;;;;;;-144.99;100.00;52627.47;5026410;28;19929;-61
2023/12/10 04:13:49;;;;;;;;;;;;;;;-144.99;100.00;52645.81;5020777;28;20465;-60
2023/12/10 04:16:23;;;;;;;;;;;;;;;-144.99;100.00;52603.00;5025692;28;20013;-60
2023/12/10 04:18:50;;;;;;;;;;;;;;;-144.99;100.00;52688.63;5027986;28;19925;-58
2023/12/10 04:21:18;;;;;;;;;;;;;;;-144.99;100.00;52656.00;5027780;28;19999;-58
2023/12/10 04:23:45;;;;;;;;;;;;;;;-144.99;100.00;52672.31;5028188;28;19933;-69
2023/12/10 04:26:13;;;;;;;;;;;;;;;-144.99;100.00;52651.94;5025811;28;19991;-69
2023/12/10 04:28:39;;;;;;;;;;;;;;;-144.99;100.00;52651.94;5028615;28;19983;-69
2023/12/10 04:31:06;;;;;;;;;;;;;;;-144.99;100.00;52651.94;5027572;28;19940;-69
2023/12/10 04:33:33;;;;;;;;;;;;;;;-144.99;100.00;52651.94;5024305;28;19971;-69
2023/12/10 04:35:59;;;;;;;;;;;;;;;-144.99;100.00;52623.38;5022138;28;19976;-69
2023/12/10 04:38:26;;;;;;;;;;;;;;;-144.99;100.00;52627.47;5025937;28;19936;-69
2023/12/10 04:40:52;;;;;;;;;;;;;;;-144.99;100.00;52635.63;5027981;28;19929;-70
2023/12/10 04:43:21;;;;;;;;;;;;;;;-144.99;100.00;52651.94;5027346;28;19932;-69
2023/12/10 04:45:47;;;;;;;;;;;;;;;-144.99;100.00;52672.31;5025525;28;19929;-70
2023/12/10 04:48:14;;;;;;;;;;;;;;;-144.99;100.00;52668.22;5019399;28;20003;-70
2023/12/10 04:50:41;;;;;;;;;;;;;;;-144.99;100.00;52643.78;5027190;28;19952;-69
2023/12/10 04:53:08;;;;;;;;;;;;;;;-144.99;100.00;52635.63;5017857;28;20267;-70
2023/12/10 04:55:34;;;;;;;;;;;;;;;-144.99;100.00;52639.69;5024995;28;19926;-71
2023/12/10 04:58:01;;;;;;;;;;;;;;;-144.99;100.00;52660.09;5027704;28;19925;-72
2023/12/10 05:00:29;;;;;;;;;;;;;;;-144.99;100.00;52660.09;5027448;28;20015;-71
2023/12/10 05:02:55;;;;;;;;;;;;;;;-144.99;100.00;52647.84;5025262;28;19924;-71
2023/12/10 05:05:24;;;;;;;;;;;;;;;-144.99;100.00;52656.00;5027117;28;20359;-72
2023/12/10 05:07:51;;;;;;;;;;;;;;;-144.99;100.00;52651.94;5027539;28;19925;-71
2023/12/10 05:10:17;;;;;;;;;;;;;;;-144.99;100.00;52631.53;5025611;28;20257;-65
2023/12/10 05:12:44;;;;;;;;;;;;;;;-144.99;100.00;52619.31;5026730;28;20002;-65
2023/12/10 05:15:10;;;;;;;;;;;;;;;-144.99;100.00;52645.81;5021402;28;19936;-66
2023/12/10 05:17:38;;;;;;;;;;;;;;;-144.99;100.00;52672.31;5024627;28;19929;-66
2023/12/10 05:20:05;;;;;;;;;;;;;;;-144.99;100.00;52631.53;5027002;28;20172;-65
2023/12/10 05:22:32;;;;;;;;;;;;;;;-144.99;100.00;52647.84;5026685;28;20502;-66
2023/12/10 05:24:58;;;;;;;;;;;;;;;-144.99;100.00;52660.09;5027035;28;19925;-69
2023/12/10 05:27:25;;;;;;;;;;;;;;;-144.99;100.00;52643.78;5026184;28;19929;-71
2023/12/10 05:29:52;;;;;;;;;;;;;;;-144.99;100.00;52639.69;5017269;28;19948;-70
2023/12/10 05:32:18;;;;;;;;;;;;;;;-144.99;100.00;52643.78;5025570;28;19926;-70
2023/12/10 05:34:46;;;;;;;;;;;;;;;-144.99;100.00;52651.94;5014142;28;19933;-70
2023/12/10 05:37:13;;;;;;;;;;;;;;;-144.99;100.00;52653.97;5015208;28;20336;-72
2023/12/10 05:39:39;;;;;;;;;;;;;;;-144.99;100.00;52664.16;5015293;28;20008;-72
2023/12/10 05:42:06;;;;;;;;;;;;;;;-144.99;100.00;52635.63;5020068;28;19929;-70
2023/12/10 05:44:33;;;;;;;;;;;;;;;-144.99;100.00;52664.16;5019131;28;19948;-71
2023/12/10 05:47:00;;;;;;;;;;;;;;;-144.99;100.00;52639.69;5017236;28;19925;-71
2023/12/10 05:49:27;;;;;;;;;;;;;;;-144.99;100.00;52656.00;5026731;28;19925;-71
2023/12/10 05:51:55;;;;;;;;;;;;;;;-144.99;100.00;52631.53;5013329;28;19925;-70
2023/12/10 05:54:21;;;;;;;;;;;;;;;-144.99;100.00;52611.16;5023435;28;19932;-68
2023/12/10 05:56:48;;;;;;;;;;;;;;;-144.99;100.00;52637.66;5024143;28;20024;-69
2023/12/10 05:59:15;;;;;;;;;;;;;;;-144.99;100.00;52631.53;5025536;28;19959;-68
2023/12/10 06:01:41;;;;;;;;;;;;;;;-144.99;100.00;52643.78;5028910;28;19929;-69
2023/12/10 06:04:08;;;;;;;;;;;;;;;-144.99;100.00;52619.31;5027220;28;20064;-68
2023/12/10 06:06:34;;;;;;;;;;;;;;;-144.99;100.00;52656.00;5030313;28;20277;-68
2023/12/10 06:09:02;;;;;;;;;;;;;;;-144.99;100.00;52627.47;5030498;28;20379;-71
2023/12/10 06:11:29;;;;;;;;;;;;;;;-144.99;100.00;52635.63;5026594;28;20025;-69
2023/12/10 06:13:55;;;;;;;;;;;;;;;-144.99;100.00;52647.84;5027792;28;19925;-69
2023/12/10 06:16:22;;;;;;;;;;;;;;;-144.99;100.00;52668.22;5019617;28;19991;-69
2023/12/10 06:18:49;;;;;;;;;;;;;;;-144.99;100.00;52629.50;5029826;28;19929;-67
2023/12/10 06:21:15;;;;;;;;;;;;;;;-144.99;100.00;52623.38;5029773;28;19983;-67
2023/12/10 06:23:42;;;;;;;;;;;;;;;-144.99;100.00;52651.94;5029718;28;20016;-67
2023/12/10 06:26:10;;;;;;;;;;;;;;;-144.99;100.00;52660.09;5023652;28;20008;-67
2023/12/10 06:28:36;;;;;;;;;;;;;;;-144.99;100.00;52651.94;5029621;28;19929;-67
2023/12/10 06:31:03;;;;;;;;;;;;;;;-144.99;100.00;52598.94;5029378;28;19979;-67
2023/12/10 06:33:29;;;;;;;;;;;;;;;-144.99;100.00;52684.53;5029454;28;19925;-67
2023/12/10 06:35:56;;;;;;;;;;;;;;;-144.99;100.00;52653.97;5029916;28;20465;-68
2023/12/10 06:38:22;;;;;;;;;;;;;;;-144.99;100.00;52643.78;5024422;28;19929;-64
2023/12/10 06:40:49;;;;;;;;;;;;;;;-144.99;100.00;52635.63;5030253;28;19925;-64
2023/12/10 06:43:17;;;;;;;;;;;;;;;-144.99;100.00;52643.78;5029978;28;19933;-64
2023/12/10 06:45:43;;;;;;;;;;;;;;;-144.99;100.00;52688.63;5029691;28;20082;-67
2023/12/10 06:48:10;;;;;;;;;;;;;;;-144.99;100.00;52635.63;5029550;28;19929;-65
2023/12/10 06:50:36;;;;;;;;;;;;;;;-144.99;100.00;52664.16;5029970;28;19964;-63
2023/12/10 06:53:03;;;;;;;;;;;;;;;-144.99;100.00;52643.78;5028042;28;20302;-65
2023/12/10 06:55:30;;;;;;;;;;;;;;;-144.99;100.00;52639.69;5029332;28;19925;-66
2023/12/10 06:57:56;;;;;;;;;;;;;;;-144.99;100.00;52645.81;5029743;28;19964;-66
2023/12/10 07:00:24;;;;;;;;;;;;;;;-144.99;100.00;52645.81;5029533;28;20383;-65
2023/12/10 07:02:51;;;;;;;;;;;;;;;-144.99;100.00;52656.00;5029607;28;19932;-65
2023/12/10 07:05:18;;;;;;;;;;;;;;;-144.99;100.00;52623.38;5050914;22;19940;-75
2023/12/10 07:07:43;;;;;;;;;;;;;;;-144.99;100.00;52664.16;5057155;28;19940;-74
2023/12/10 07:10:10;;;;;;;;;;;;;;;-144.99;100.00;52627.47;5053079;28;19929;-77
2023/12/10 07:12:36;;;;;;;;;;;;;;;-144.99;100.00;52639.69;5054046;28;19978;-76
2023/12/10 07:15:03;;;;;;;;;;;;;;;-144.99;100.00;52649.88;5054953;28;19947;-76
2023/12/10 07:17:31;;;;;;;;;;;;;;;-144.99;100.00;52656.00;5066476;28;19983;-77
2023/12/10 07:19:58;;;;;;;;;;;;;;;-144.99;100.00;52619.31;5064380;28;19929;-77
2023/12/10 07:22:24;;;;;;;;;;;;;;;-144.99;100.00;52676.38;5055700;28;19944;-77
2023/12/10 07:24:51;;;;;;;;;;;;;;;-144.99;100.00;52651.94;5052745;28;19925;-74
2023/12/10 07:27:17;;;;;;;;;;;;;;;-144.99;100.00;52676.38;5057983;28;19925;-75
2023/12/10 07:29:44;;;;;;;;;;;;;;;-144.99;100.00;52635.63;5067409;28;19992;-74
2023/12/10 07:32:10;;;;;;;;;;;;;;;-144.99;100.00;52680.47;5063035;28;19929;-76
2023/12/10 07:34:38;;;;;;;;;;;;;;;-144.99;100.00;52633.59;5050845;28;19928;-74
2023/12/10 07:37:05;;;;;;;;;;;;;;;-144.99;100.00;52615.25;5050191;28;19925;-73
2023/12/10 07:39:31;;;;;;;;;;;;;;;-144.99;100.00;52668.22;5050840;28;19935;-73
2023/12/10 07:41:58;;;;;;;;;;;;;;;-144.99;100.00;52627.47;5050664;28;19925;-74
2023/12/10 07:44:25;;;;;;;;;;;;;;;-144.99;100.00;52651.94;5047555;28;20149;-73
2023/12/10 07:46:51;;;;;;;;;;;;;;;-144.99;100.00;52678.44;5050467;28;20337;-73
2023/12/10 07:49:18;;;;;;;;;;;;;;;-144.99;100.00;52631.53;5050211;28;19991;-73
2023/12/10 07:51:46;;;;;;;;;;;;;;;-144.99;100.00;52647.84;5049975;28;19924;-72
2023/12/10 07:54:12;;;;;;;;;;;;;;;-144.99;100.00;52643.78;5048802;28;20349;-74
2023/12/10 07:56:39;;;;;;;;;;;;;;;-144.99;100.00;52639.69;5050685;28;19960;-75
2023/12/10 07:59:05;;;;;;;;;;;;;;;-144.99;100.00;52627.47;5050958;28;19933;-74
2023/12/10 08:01:32;;;;;;;;;;;;;;;-144.99;100.00;52658.03;5050426;28;19929;-71
2023/12/10 08:03:58;;;;;;;;;;;;;;;-144.99;100.00;52674.34;5050043;28;19929;-71
2023/12/10 08:06:25;;;;;;;;;;;;;;;-144.99;100.00;52647.84;5049853;28;19925;-71
2023/12/10 08:08:53;;;;;;;;;;;;;;;-144.99;100.00;52651.94;5050076;28;20454;-71
2023/12/10 08:11:19;;;;;;;;;;;;;;;-144.99;100.00;52623.38;5049627;28;19974;-71
2023/12/10 08:13:46;;;;;;;;;;;;;;;-144.99;100.00;52658.03;5046723;28;19933;-69
2023/12/10 08:16:12;;;;;;;;;;;;;;;-144.99;100.00;52672.31;5047307;28;19971;-71
2023/12/10 08:18:39;;;;;;;;;;;;;;;-144.99;100.00;52635.63;5048707;28;19932;-71
2023/12/10 08:21:06;;;;;;;;;;;;;;;-144.99;100.00;52651.94;5049609;28;19928;-70
2023/12/10 08:23:32;;;;;;;;;;;;;;;-144.99;100.00;52619.31;5050527;28;19932;-70
2023/12/10 08:26:00;;;;;;;;;;;;;;;-144.99;100.00;52645.81;5050445;28;20460;-70
2023/12/10 08:28:27;;;;;;;;;;;;;;;-144.99;100.00;52668.22;5042233;28;19936;-70
2023/12/10 08:30:53;;;;;;;;;;;;;;;-144.99;100.00;52615.25;5050055;28;19929;-72
2023/12/10 08:33:20;;;;;;;;;;;;;;;-144.99;100.00;52651.94;5049843;28;19929;-71
2023/12/10 08:35:46;;;;;;;;;;;;;;;-144.99;100.00;52647.84;5048719;28;20418;-71
2023/12/10 08:38:13;;;;;;;;;;;;;;;-144.99;100.00;52635.63;5054474;28;20326;-73
2023/12/10 08:40:40;;;;;;;;;;;;;;;-144.99;100.00;52639.69;5050567;28;20349;-72
2023/12/10 08:43:08;;;;;;;;;;;;;;;-144.99;100.00;52647.84;5048081;28;19929;-72
2023/12/10 08:45:34;;;;;;;;;;;;;;;-144.99;100.00;52664.16;5049835;28;20460;-72
2023/12/10 08:48:01;;;;;;;;;;;;;;;-144.99;100.00;52627.47;5050125;28;19929;-71
2023/12/10 08:50:27;;;;;;;;;;;;;;;-144.99;100.00;52651.94;5049225;28;20349;-72
2023/12/10 08:52:54;;;;;;;;;;;;;;;-144.99;100.00;52647.84;5049681;28;20026;-72
2023/12/10 08:55:20;;;;;;;;;;;;;;;-144.99;100.00;52625.44;5049384;28;19932;-72
2023/12/10 08:57:47;;;;;;;;;;;;;;;-144.99;100.00;52615.25;5049369;28;19929;-73
2023/12/10 09:00:16;;;;;;;;;;;;;;;-144.99;100.00;52649.88;5049735;28;19925;-72
2023/12/10 09:02:42;;;;;;;;;;;;;;;-144.99;100.00;52643.78;5054178;28;19932;-73
2023/12/10 09:05:09;;;;;;;;;;;;;;;-144.99;100.00;52651.94;5048885;28;19952;-74
2023/12/10 09:07:35;;;;;;;;;;;;;;;-144.99;100.00;52629.50;5048090;28;19929;-72
2023/12/10 09:10:02;;;;;;;;;;;;;;;-144.99;100.00;52627.47;5050660;28;19982;-72
2023/12/10 09:12:29;;;;;;;;;;;;;;;-144.99;100.00;52641.72;5049350;28;20439;-72
2023/12/10 09:14:55;;;;;;;;;;;;;;;-144.99;100.00;52674.34;5061351;28;19924;-72
2023/12/10 09:17:23;;;;;;;;;;;;;;;-144.99;100.00;52627.47;5067903;28;19974;-73
2023/12/10 09:19:50;;;;;;;;;;;;;;;-144.99;100.00;52676.38;5065554;28;19929;-73
2023/12/10 09:22:16;;;;;;;;;;;;;;;-144.99;100.00;52635.63;5055978;28;19928;-71
2023/12/10 09:24:43;;;;;;;;;;;;;;;-144.99;100.00;52629.50;5062874;28;19925;-72
2023/12/10 09:27:10;;;;;;;;;;;;;;;-144.99;100.00;52668.22;5065623;28;19936;-72
2023/12/10 09:29:38;;;;;;;;;;;;;;;-144.99;100.00;52645.81;5065357;28;19971;-72
2023/12/10 09:32:05;;;;;;;;;;;;;;;-144.99;100.00;52603.00;5065718;28;19924;-70
2023/12/10 09:34:33;;;;;;;;;;;;;;;-144.99;100.00;52651.94;5066316;28;19955;-72
2023/12/10 09:37:00;;;;;;;;;;;;;;;-144.99;100.00;52607.09;5064488;28;19924;-74
2023/12/10 09:39:26;;;;;;;;;;;;;;;-144.99;100.00;52639.69;5064359;28;19933;-69
2023/12/10 09:41:53;;;;;;;;;;;;;;;-144.99;100.00;52635.63;5066904;28;20252;-69
2023/12/10 09:44:20;;;;;;;;;;;;;;;-144.99;100.00;52647.84;5060623;28;20181;-69
2023/12/10 09:46:46;;;;;;;;;;;;;;;-144.99;100.00;52645.81;5065403;28;20033;-69
2023/12/10 09:49:14;;;;;;;;;;;;;;;-144.99;100.00;52619.31;5059846;28;20367;-69
2023/12/10 09:51:42;;;;;;;;;;;;;;;-144.99;100.00;52651.94;5061599;28;20006;-69
2023/12/10 09:54:08;;;;;;;;;;;;;;;-144.99;100.00;52639.69;5068071;28;19977;-69
2023/12/10 09:56:35;;;;;;;;;;;;;;;-144.99;100.00;52600.97;5061039;28;19933;-69
2023/12/10 09:59:01;;;;;;;;;;;;;;;-144.99;100.00;52676.38;5059043;28;19925;-69
2023/12/10 10:01:28;;;;;;;;;;;;;;;-144.99;100.00;52619.31;5053890;28;20409;-68
2023/12/10 10:03:56;;;;;;;;;;;;;;;-144.99;100.00;52651.94;5052663;28;19932;-69
2023/12/10 10:06:22;;;;;;;;;;;;;;;-144.99;100.00;52647.84;5052059;28;19990;-68
2023/12/10 10:08:50;;;;;;;;;;;;;;;-144.99;100.00;52658.03;5051642;28;19935;-68
2023/12/10 10:11:17;;;;;;;;;;;;;;;-144.99;100.00;52664.16;5055389;28;19928;-70
2023/12/10 10:13:50;;;;;;;;;;;;;;;-144.99;100.00;52676.38;5054416;28;19940;-69
2023/12/10 10:16:17;;;;;;;;;;;;;;;-144.99;100.00;52639.69;5049360;28;19940;-69
2023/12/10 10:18:43;;;;;;;;;;;;;;;-144.99;100.00;52592.81;5052053;28;19970;-68
2023/12/10 10:21:11;;;;;;;;;;;;;;;-144.99;100.00;52617.28;5052253;28;19948;-69
2023/12/10 10:23:37;;;;;;;;;;;;;;;-144.99;100.00;52660.09;5063268;28;19925;-69
2023/12/10 10:26:05;;;;;;;;;;;;;;;-144.99;100.00;52631.53;5069640;28;19935;-71
2023/12/10 10:28:33;;;;;;;;;;;;;;;-144.99;100.00;52635.63;5060240;28;20383;-69
2023/12/10 10:31:01;;;;;;;;;;;;;;;-144.99;100.00;52664.16;5050797;28;19925;-70
2023/12/10 10:33:27;;;;;;;;;;;;;;;-144.99;100.00;52668.22;5044144;28;19924;-72
2023/12/10 10:35:54;;;;;;;;;;;;;;;-144.99;100.00;52672.31;5055612;28;20064;-69
2023/12/10 10:38:21;;;;;;;;;;;;;;;-144.99;100.00;52643.78;5051561;28;20342;-69
2023/12/10 10:40:48;;;;;;;;;;;;;;;-144.99;100.00;52641.72;5056641;28;19964;-71
2023/12/10 10:43:16;;;;;;;;;;;;;;;-144.99;100.00;52651.94;5051653;28;19983;-69
2023/12/10 10:45:43;;;;;;;;;;;;;;;-144.99;100.00;52635.63;5060255;28;19925;-69
2023/12/10 10:48:09;;;;;;;;;;;;;;;-144.99;100.00;52619.31;5059234;28;19924;-70
2023/12/10 10:50:37;;;;;;;;;;;;;;;-144.99;100.00;52631.53;5056571;28;20328;-69
2023/12/10 10:53:04;;;;;;;;;;;;;;;-144.99;100.00;52660.09;5080888;28;19975;-68
2023/12/10 10:55:33;;;;;;;;;;;;;;;-144.99;100.00;52651.94;5050332;28;20378;-62
2023/12/10 10:57:59;;;;;;;;;;;;;;;-144.99;100.00;52619.31;5050250;28;19971;-69
2023/12/10 11:00:37;;;;;;;;;;;;;;;-144.99;100.00;52607.09;5051023;28;19936;-71
2023/12/10 11:03:04;;;;;;;;;;;;;;;-144.99;100.00;52615.25;5050911;28;19967;-68
2023/12/10 11:05:31;;;;;;;;;;;;;;;-144.99;100.00;52627.47;5058641;28;19947;-69
2023/12/10 11:07:58;;;;;;;;;;;;;;;-144.99;100.00;52603.00;5068406;28;19951;-68
2023/12/10 11:10:25;;;;;;;;;;;;;;;-144.99;100.00;52609.13;5067879;28;19936;-68
2023/12/10 11:12:53;;;;;;;;;;;;;;;-144.99;100.00;52662.13;5051107;28;19929;-68
2023/12/10 11:15:22;;;;;;;;;;;;;;;-144.99;100.00;52639.69;5048560;28;19936;-68
2023/12/10 11:17:51;;;;;;;;;;;;;;;-144.99;100.00;52598.94;5052186;28;19928;-68
2023/12/10 11:20:29;;;;;;;;;;;;;;;-144.99;100.00;52582.63;5055205;28;19933;-68
2023/12/10 11:22:56;;;;;;;;;;;;;;;-144.99;100.00;52586.69;5053951;28;19936;-68
2023/12/10 11:25:22;;;;;;;;;;;;;;;-144.99;100.00;52629.50;5049298;28;19937;-68
2023/12/10 11:27:49;;;;;;;;;;;;;;;-144.99;100.00;52615.25;5049734;28;19932;-68
2023/12/10 11:30:15;;;;;;;;;;;;;;;-144.99;100.00;52631.53;5052814;28;19924;-68
2023/12/10 11:32:42;;;;;;;;;;;;;;;-144.99;100.00;52676.38;5054907;28;19925;-68
2023/12/10 11:35:10;;;;;;;;;;;;;;;-144.99;100.00;52590.78;5051598;28;19925;-68
2023/12/10 11:37:37;;;;;;;;;;;;;;;-144.99;100.00;52647.84;5054789;28;20428;-68
2023/12/10 11:40:04;;;;;;;;;;;;;;;-144.99;100.00;52619.31;5051713;28;19929;-68
2023/12/10 11:42:30;;;;;;;;;;;;;;;-144.99;100.00;52582.63;5053979;28;19929;-69
2023/12/10 11:44:57;;;;;;;;;;;;;;;-144.99;100.00;52615.25;5058244;28;20492;-68
2023/12/10 11:47:23;;;;;;;;;;;;;;;-144.99;100.00;52631.53;5049272;28;19928;-68
2023/12/10 11:49:50;;;;;;;;;;;;;;;-144.99;100.00;52611.16;5048092;28;20589;-68
2023/12/10 11:52:18;;;;;;;;;;;;;;;-144.99;100.00;52609.13;5049178;28;19968;-66
2023/12/10 11:54:45;;;;;;;;;;;;;;;-144.99;100.00;52635.63;5050321;28;19932;-67
2023/12/10 11:57:11;;;;;;;;;;;;;;;-144.99;100.00;52615.25;5050877;28;19925;-67
2023/12/10 11:59:38;;;;;;;;;;;;;;;-144.99;100.00;52623.38;5056397;28;19964;-67
2023/12/10 12:02:06;;;;;;;;;;;;;;;-144.99;100.00;52598.94;5049601;28;19932;-67
2023/12/10 12:04:33;;;;;;;;;;;;;;;-144.99;100.00;52631.53;5049990;28;20015;-68
2023/12/10 12:07:00;;;;;;;;;;;;;;;-144.99;100.00;52623.38;5053277;28;19924;-68
2023/12/10 12:09:29;;;;;;;;;;;;;;;-144.99;100.00;52639.69;5053365;28;19928;-68
2023/12/10 12:11:56;;;;;;;;;;;;;;;-144.99;100.00;52658.03;5062439;28;19932;-68
2023/12/10 12:14:23;;;;;;;;;;;;;;;-144.99;100.00;52639.69;5048799;28;20507;-67
2023/12/10 12:16:49;;;;;;;;;;;;;;;-144.99;100.00;52627.47;5049109;28;19929;-67